createdAt,value
2023-02-21T00:01:46.348Z,7.00
2023-02-21T00:04:31.471Z,7.00
2023-02-21T00:07:16.708Z,7.10
2023-02-21T00:10:01.925Z,7.10
2023-02-21T00:12:47.007Z,7.10
2023-02-21T00:15:33.333Z,7.00
2023-02-21T00:18:19.944Z,7.10
2023-02-21T00:21:05.228Z,7.10
2023-02-21T00:23:53.080Z,7.10
2023-02-21T00:26:38.399Z,7.10
2023-02-21T00:29:24.098Z,7.10
2023-02-21T00:32:09.584Z,7.10
2023-02-21T00:34:56.564Z,7.10
2023-02-21T00:37:41.712Z,7.10
2023-02-21T00:40:30.079Z,7.10
2023-02-21T00:43:15.177Z,7.10
2023-02-21T00:46:00.667Z,7.10
2023-02-21T00:48:46.198Z,7.10
2023-02-21T00:51:32.745Z,7.10
2023-02-21T00:54:18.046Z,7.10
2023-02-21T00:57:03.171Z,7.10
2023-02-21T00:59:48.211Z,7.10
2023-02-21T01:02:33.262Z,7.10
2023-02-21T01:05:18.394Z,7.10
2023-02-21T01:08:04.835Z,7.10
2023-02-21T01:10:50.114Z,7.10
2023-02-21T01:13:35.247Z,7.10
2023-02-21T01:16:20.306Z,7.10
2023-02-21T01:19:05.423Z,7.10
2023-02-21T01:21:50.439Z,7.10
2023-02-21T01:24:36.946Z,7.10
2023-02-21T01:27:22.333Z,7.00
2023-02-21T01:30:07.817Z,7.00
2023-02-21T01:32:53.080Z,7.00
2023-02-21T01:35:38.418Z,7.00
2023-02-21T01:38:23.564Z,7.00
2023-02-21T01:41:10.263Z,7.00
2023-02-21T01:43:55.527Z,7.00
2023-02-21T01:46:40.938Z,7.00
2023-02-21T01:49:29.529Z,7.00
2023-02-21T01:52:17.597Z,7.00
2023-02-21T01:55:07.905Z,7.00
2023-02-21T01:57:55.046Z,7.00
2023-02-21T02:00:40.507Z,7.00
2023-02-21T02:03:28.549Z,7.00
2023-02-21T02:06:15.736Z,7.00
2023-02-21T02:09:01.405Z,7.00
2023-02-21T02:12:06.047Z,7.00
2023-02-21T02:14:52.539Z,7.00
2023-02-21T02:17:32.577Z,7.00
2023-02-21T02:20:41.469Z,7.00
2023-02-21T02:23:41.487Z,7.00
2023-02-21T02:26:42.447Z,7.00
2023-02-21T02:29:26.284Z,7.00
2023-02-21T02:32:15.901Z,7.00
2023-02-21T02:34:53.652Z,7.00
2023-02-21T02:37:29.026Z,7.00
2023-02-21T02:40:02.033Z,7.00
2023-02-21T02:42:44.584Z,7.00
2023-02-21T02:45:19.035Z,7.00
2023-02-21T02:47:51.278Z,7.00
2023-02-21T02:50:22.257Z,7.00
2023-02-21T02:52:53.711Z,7.00
2023-02-21T02:55:36.994Z,7.00
2023-02-21T02:58:06.110Z,7.00
2023-02-21T03:00:38.348Z,7.00
2023-02-21T03:03:37.082Z,7.00
2023-02-21T03:06:21.173Z,7.00
2023-02-21T03:08:57.867Z,7.00
2023-02-21T03:11:27.653Z,7.00
2023-02-21T03:13:59.392Z,7.00
2023-02-21T03:16:30.697Z,7.00
2023-02-21T03:19:02.978Z,7.10
2023-02-21T03:21:38.021Z,7.00
2023-02-21T03:24:08.340Z,7.00
2023-02-21T03:26:39.666Z,7.00
2023-02-21T03:29:08.245Z,7.00
2023-02-21T03:31:41.880Z,7.00
2023-02-21T03:34:09.673Z,7.00
2023-02-21T03:36:39.489Z,7.00
2023-02-21T03:39:07.225Z,7.00
2023-02-21T03:41:34.934Z,7.00
2023-02-21T03:44:02.626Z,7.00
2023-02-21T03:46:30.362Z,7.00
2023-02-21T03:48:58.065Z,7.00
2023-02-21T03:51:25.753Z,7.00
2023-02-21T03:53:54.782Z,7.00
2023-02-21T03:56:26.100Z,7.00
2023-02-21T03:58:55.793Z,7.10
2023-02-21T04:01:23.704Z,7.00
2023-02-21T04:03:51.805Z,7.00
2023-02-21T04:06:19.505Z,7.10
2023-02-21T04:08:47.205Z,7.10
2023-02-21T04:11:19.104Z,7.10
2023-02-21T04:13:46.793Z,7.10
2023-02-21T04:16:14.582Z,7.10
2023-02-21T04:18:42.339Z,7.10
2023-02-21T04:21:10.056Z,7.10
2023-02-21T04:23:37.751Z,7.10
2023-02-21T04:26:05.724Z,7.10
2023-02-21T04:28:34.743Z,7.10
2023-02-21T04:31:02.442Z,7.10
2023-02-21T04:33:30.170Z,7.10
2023-02-21T04:35:58.280Z,7.10
2023-02-21T04:38:25.965Z,7.10
2023-02-21T04:40:53.697Z,7.10
2023-02-21T04:43:22.001Z,7.10
2023-02-21T04:45:51.095Z,7.10
2023-02-21T04:48:18.890Z,7.10
2023-02-21T04:50:46.770Z,7.10
2023-02-21T04:53:14.603Z,7.10
2023-02-21T04:55:42.274Z,7.10
2023-02-21T04:58:10.122Z,7.10
2023-02-21T05:00:37.821Z,7.10
2023-02-21T05:03:06.891Z,7.10
2023-02-21T05:05:34.628Z,7.10
2023-02-21T05:08:02.315Z,7.10
2023-02-21T05:10:44.638Z,7.10
2023-02-21T05:13:13.147Z,7.10
2023-02-21T05:15:41.260Z,7.10
2023-02-21T05:18:10.367Z,7.10
2023-02-21T05:20:38.047Z,7.10
2023-02-21T05:23:13.326Z,7.10
2023-02-21T05:25:41.673Z,7.10
2023-02-21T05:28:09.682Z,7.10
2023-02-21T05:30:37.465Z,7.10
2023-02-21T05:33:05.287Z,7.10
2023-02-21T05:35:34.312Z,7.10
2023-02-21T05:38:02.024Z,7.10
2023-02-21T05:40:29.731Z,7.10
2023-02-21T05:42:57.453Z,7.10
2023-02-21T05:45:25.151Z,7.10
2023-02-21T05:47:56.190Z,7.10
2023-02-21T05:50:23.874Z,7.10
2023-02-21T05:52:52.932Z,7.10
2023-02-21T05:55:20.671Z,7.10
2023-02-21T05:57:48.485Z,7.10
2023-02-21T06:00:18.789Z,7.10
2023-02-21T06:02:46.697Z,7.10
2023-02-21T06:05:15.127Z,7.10
2023-02-21T06:07:42.836Z,7.10
2023-02-21T06:10:12.520Z,7.00
2023-02-21T06:12:40.341Z,7.10
2023-02-21T06:15:09.280Z,7.10
2023-02-21T06:17:37.786Z,7.10
2023-02-21T06:20:07.179Z,7.10
2023-02-21T06:22:35.136Z,7.10
2023-02-21T06:25:03.895Z,7.10
2023-02-21T06:27:32.938Z,7.10
2023-02-21T06:30:00.743Z,7.10
2023-02-21T06:32:28.563Z,7.00
2023-02-21T06:34:56.453Z,7.00
2023-02-21T06:37:24.244Z,7.10
2023-02-21T06:39:51.948Z,7.10
2023-02-21T06:42:19.843Z,7.10
2023-02-21T06:44:49.802Z,7.10
2023-02-21T06:47:18.349Z,7.10
2023-02-21T06:49:46.090Z,7.00
2023-02-21T06:52:13.818Z,7.10
2023-02-21T06:54:41.783Z,7.10
2023-02-21T06:57:09.496Z,7.10
2023-02-21T06:59:37.419Z,7.10
2023-02-21T07:02:06.910Z,7.10
2023-02-21T07:04:34.623Z,7.10
2023-02-21T07:07:02.316Z,7.10
2023-02-21T07:09:30.024Z,7.10
2023-02-21T07:11:57.808Z,7.10
2023-02-21T07:14:25.491Z,7.10
2023-02-21T07:16:53.163Z,7.10
2023-02-21T07:19:22.243Z,7.10
2023-02-21T07:21:50.025Z,7.10
2023-02-21T07:24:18.184Z,7.10
2023-02-21T07:26:45.896Z,7.10
2023-02-21T07:29:13.745Z,7.10
2023-02-21T07:31:41.592Z,7.20
2023-02-21T07:34:09.364Z,7.20
2023-02-21T07:36:40.306Z,7.20
2023-02-21T07:39:08.147Z,7.10
2023-02-21T07:41:35.855Z,7.20
2023-02-21T07:44:03.734Z,7.20
2023-02-21T07:46:31.865Z,7.20
2023-02-21T07:48:59.547Z,7.20
2023-02-21T07:51:29.455Z,7.20
2023-02-21T07:53:58.571Z,7.20
2023-02-21T07:56:26.294Z,7.20
2023-02-21T07:58:54.250Z,7.20
2023-02-21T08:01:25.442Z,7.20
2023-02-21T08:03:53.377Z,7.20
2023-02-21T08:06:21.300Z,7.20
2023-02-21T08:08:48.983Z,7.20
2023-02-21T08:11:18.157Z,7.20
2023-02-21T08:13:45.856Z,7.30
2023-02-21T08:16:13.654Z,7.30
2023-02-21T08:18:41.420Z,7.30
2023-02-21T08:21:10.563Z,7.30
2023-02-21T08:23:38.562Z,7.30
2023-02-21T08:26:06.803Z,7.30
2023-02-21T08:28:37.208Z,7.20
2023-02-21T08:31:05.260Z,7.30
2023-02-21T08:33:32.956Z,7.30
2023-02-21T08:36:00.626Z,7.30
2023-02-21T08:38:28.393Z,7.30
2023-02-21T08:40:57.655Z,7.30
2023-02-21T08:43:25.985Z,7.40
2023-02-21T08:45:55.012Z,7.40
2023-02-21T08:48:22.726Z,7.40
2023-02-21T08:50:52.036Z,7.40
2023-02-21T08:53:19.782Z,7.40
2023-02-21T08:55:47.492Z,7.40
2023-02-21T08:58:15.188Z,7.40
2023-02-21T09:00:42.939Z,7.40
2023-02-21T09:03:12.010Z,7.40
2023-02-21T09:05:40.136Z,7.50
2023-02-21T09:08:10.206Z,7.50
2023-02-21T09:10:37.997Z,7.50
2023-02-21T09:13:05.930Z,7.50
2023-02-21T09:15:33.626Z,7.50
2023-02-21T09:18:01.766Z,7.50
2023-02-21T09:20:30.795Z,7.50
2023-02-21T09:22:58.492Z,7.50
2023-02-21T09:25:26.379Z,7.50
2023-02-21T09:27:55.117Z,7.50
2023-02-21T09:30:26.540Z,7.60
2023-02-21T09:32:55.239Z,7.60
2023-02-21T09:35:23.404Z,7.60
2023-02-21T09:37:52.563Z,7.60
2023-02-21T09:40:30.189Z,7.60
2023-02-21T09:43:00.637Z,7.60
2023-02-21T09:45:31.958Z,7.70
2023-02-21T09:48:03.486Z,7.70
2023-02-21T09:50:41.014Z,7.70
2023-02-21T09:53:11.887Z,7.70
2023-02-21T09:55:41.334Z,7.70
2023-02-21T09:58:13.789Z,7.70
2023-02-21T10:00:44.013Z,7.70
2023-02-21T10:03:31.560Z,7.70
2023-02-21T10:06:06.055Z,7.70
2023-02-21T10:08:43.016Z,7.70
2023-02-21T10:11:27.724Z,7.70
2023-02-21T10:14:02.942Z,7.70
2023-02-21T10:16:37.961Z,7.70
2023-02-21T10:19:12.738Z,7.70
2023-02-21T10:21:45.075Z,7.80
2023-02-21T10:24:16.302Z,7.80
2023-02-21T10:26:49.389Z,7.80
2023-02-21T10:29:23.777Z,7.80
2023-02-21T10:31:56.232Z,7.80
2023-02-21T10:34:29.138Z,7.80
2023-02-21T10:36:58.658Z,7.90
2023-02-21T10:39:35.074Z,7.90
2023-02-21T10:42:02.870Z,7.90
2023-02-21T10:44:33.312Z,8.00
2023-02-21T10:47:05.414Z,8.00
2023-02-21T10:49:37.802Z,8.00
2023-02-21T10:52:10.614Z,8.00
2023-02-21T10:54:40.029Z,8.10
2023-02-21T10:57:11.103Z,8.10
2023-02-21T10:59:42.314Z,8.20
2023-02-21T11:02:31.617Z,8.20
2023-02-21T11:05:11.121Z,8.30
2023-02-21T11:07:39.244Z,8.30
2023-02-21T11:10:31.025Z,8.30
2023-02-21T11:13:15.859Z,8.30
2023-02-21T11:15:44.106Z,8.30
2023-02-21T11:18:18.386Z,8.30
2023-02-21T11:20:47.438Z,8.30
2023-02-21T11:23:27.476Z,8.30
2023-02-21T11:26:07.011Z,8.30
2023-02-21T11:28:38.858Z,8.30
2023-02-21T11:31:14.029Z,8.30
2023-02-21T11:33:47.601Z,8.40
2023-02-21T11:36:18.687Z,8.40
2023-02-21T11:38:59.929Z,8.40
2023-02-21T11:41:35.770Z,8.50
2023-02-21T11:44:03.480Z,8.50
2023-02-21T11:46:37.276Z,8.50
2023-02-21T11:49:12.246Z,8.60
2023-02-21T11:51:44.266Z,8.60
2023-02-21T11:54:12.347Z,8.60
2023-02-21T11:56:49.083Z,8.60
2023-02-21T11:59:30.923Z,8.60
2023-02-21T12:02:31.658Z,8.60
2023-02-21T12:05:14.697Z,8.60
2023-02-21T12:07:52.815Z,8.70
2023-02-21T12:10:39.426Z,8.70
2023-02-21T12:13:19.253Z,8.70
2023-02-21T12:15:55.630Z,8.80
2023-02-21T12:18:51.251Z,8.70
2023-02-21T12:21:43.295Z,8.80
2023-02-21T12:24:27.248Z,8.80
2023-02-21T12:27:01.206Z,8.80
2023-02-21T12:29:48.496Z,8.90
2023-02-21T12:32:51.280Z,8.90
2023-02-21T12:35:42.891Z,8.90
2023-02-21T12:38:15.907Z,8.90
2023-02-21T12:40:53.743Z,8.90
2023-02-21T12:43:38.936Z,9.00
2023-02-21T12:46:16.961Z,9.00
2023-02-21T12:48:52.054Z,9.00
2023-02-21T12:51:23.042Z,9.00
2023-02-21T12:53:54.650Z,9.00
2023-02-21T12:56:26.538Z,9.00
2023-02-21T12:58:59.310Z,9.00
2023-02-21T13:01:33.908Z,9.10
2023-02-21T13:04:14.775Z,9.10
2023-02-21T13:06:48.704Z,9.10
2023-02-21T13:09:27.071Z,9.10
2023-02-21T13:12:01.689Z,9.10
2023-02-21T13:14:34.794Z,9.20
2023-02-21T13:17:03.877Z,9.20
2023-02-21T13:19:39.348Z,9.20
2023-02-21T13:22:43.224Z,9.20
2023-02-21T13:25:22.787Z,9.20
2023-02-21T13:27:57.317Z,9.20
2023-02-21T13:30:38.494Z,9.20
2023-02-21T13:33:07.995Z,9.30
2023-02-21T13:35:39.248Z,9.30
2023-02-21T13:38:08.759Z,9.30
2023-02-21T13:40:39.516Z,9.30
2023-02-21T13:43:13.243Z,9.30
2023-02-21T13:45:41.540Z,9.30
2023-02-21T13:48:29.426Z,9.40
2023-02-21T13:50:59.224Z,9.40
2023-02-21T13:53:32.475Z,9.40
2023-02-21T13:56:41.276Z,9.50
2023-02-21T13:59:35.522Z,9.50
2023-02-21T14:02:21.311Z,9.50
2023-02-21T14:05:08.451Z,9.60
2023-02-21T14:07:59.603Z,9.60
2023-02-21T14:10:35.059Z,9.70
2023-02-21T14:13:07.426Z,9.70
2023-02-21T14:15:44.370Z,9.70
2023-02-21T14:18:22.474Z,9.80
2023-02-21T14:20:55.036Z,9.80
2023-02-21T14:23:25.458Z,9.80
2023-02-21T14:26:00.127Z,9.80
2023-02-21T14:28:49.949Z,9.80
2023-02-21T14:31:58.189Z,9.90
2023-02-21T14:34:32.153Z,9.90
2023-02-21T14:37:04.031Z,9.90
2023-02-21T14:39:36.448Z,9.90
2023-02-21T14:42:30.767Z,9.90
2023-02-21T14:45:20.921Z,9.90
2023-02-21T14:48:44.012Z,9.90
2023-02-21T14:51:52.637Z,10.00
2023-02-21T14:54:48.481Z,10.10
2023-02-21T14:57:50.690Z,10.10
2023-02-21T15:00:23.741Z,10.10
2023-02-21T15:02:55.938Z,10.10
2023-02-21T15:05:29.875Z,10.10
2023-02-21T15:08:03.338Z,10.10
2023-02-21T15:10:32.694Z,10.10
2023-02-21T15:13:02.569Z,10.10
2023-02-21T15:15:33.817Z,10.10
2023-02-21T15:18:08.160Z,10.00
2023-02-21T15:20:39.107Z,10.00
2023-02-21T15:23:13.630Z,9.90
2023-02-21T15:25:41.883Z,9.90
2023-02-21T15:28:22.071Z,9.90
2023-02-21T15:31:00.232Z,9.90
2023-02-21T15:33:31.201Z,9.80
2023-02-21T15:36:02.643Z,9.80
2023-02-21T15:38:33.503Z,9.80
2023-02-21T15:41:06.079Z,9.70
2023-02-21T15:43:48.337Z,9.70
2023-02-21T15:46:20.891Z,9.70
2023-02-21T15:48:49.491Z,9.70
2023-02-21T15:51:18.626Z,9.60
2023-02-21T15:54:19.932Z,9.60
2023-02-21T15:56:47.918Z,9.60
2023-02-21T15:59:20.239Z,9.60
2023-02-21T16:02:14.240Z,9.50
2023-02-21T16:04:43.670Z,9.50
2023-02-21T16:07:21.354Z,9.50
2023-02-21T16:09:51.674Z,9.40
2023-02-21T16:12:28.786Z,9.40
2023-02-21T16:15:00.067Z,9.40
2023-02-21T16:17:31.260Z,9.40
2023-02-21T16:20:02.076Z,9.30
2023-02-21T16:22:43.110Z,9.30
2023-02-21T16:25:24.642Z,9.30
2023-02-21T16:27:54.648Z,9.20
2023-02-21T16:30:24.160Z,9.20
2023-02-21T16:32:54.301Z,9.10
2023-02-21T16:35:23.905Z,9.10
2023-02-21T16:37:55.225Z,9.00
2023-02-21T16:40:25.182Z,9.00
2023-02-21T16:42:54.452Z,8.90
2023-02-21T16:45:22.758Z,8.90
2023-02-21T16:47:55.920Z,8.90
2023-02-21T16:50:28.915Z,8.80
2023-02-21T16:52:58.634Z,8.80
2023-02-21T16:55:28.678Z,8.70
2023-02-21T16:57:59.775Z,8.70
2023-02-21T17:00:27.609Z,8.60
2023-02-21T17:02:55.394Z,8.60
2023-02-21T17:05:24.665Z,8.50
2023-02-21T17:07:53.551Z,8.50
2023-02-21T17:10:22.953Z,8.50
2023-02-21T17:12:50.922Z,8.50
2023-02-21T17:15:18.787Z,8.40
2023-02-21T17:17:53.123Z,8.40
2023-02-21T17:20:22.062Z,8.40
2023-02-21T17:22:49.817Z,8.30
2023-02-21T17:25:18.367Z,8.30
2023-02-21T17:27:47.686Z,8.20
2023-02-21T17:30:16.290Z,8.20
2023-02-21T17:32:45.332Z,8.20
2023-02-21T17:35:14.686Z,8.20
2023-02-21T17:37:42.698Z,8.10
2023-02-21T17:40:12.032Z,8.10
2023-02-21T17:42:40.787Z,8.00
2023-02-21T17:45:10.734Z,8.00
2023-02-21T17:47:38.932Z,7.90
2023-02-21T17:50:07.724Z,7.90
2023-02-21T17:52:35.880Z,7.80
2023-02-21T17:55:07.589Z,7.80
2023-02-21T17:57:37.295Z,7.70
2023-02-21T18:00:12.331Z,7.70
2023-02-21T18:02:41.477Z,7.70
2023-02-21T18:05:09.693Z,7.70
2023-02-21T18:07:37.366Z,7.70
2023-02-21T18:10:06.495Z,7.70
2023-02-21T18:12:35.018Z,7.70
2023-02-21T18:15:02.933Z,7.60
2023-02-21T18:17:30.628Z,7.60
2023-02-21T18:19:59.656Z,7.60
2023-02-21T18:22:27.390Z,7.60
2023-02-21T18:24:55.098Z,7.60
2023-02-21T18:27:22.894Z,7.50
2023-02-21T18:29:54.335Z,7.50
2023-02-21T18:32:22.080Z,7.50
2023-02-21T18:34:49.873Z,7.50
2023-02-21T18:37:19.861Z,7.50
2023-02-21T18:39:47.563Z,7.50
2023-02-21T18:42:15.238Z,7.50
2023-02-21T18:44:42.933Z,7.50
2023-02-21T18:47:11.189Z,7.50
2023-02-21T18:49:39.103Z,7.50
2023-02-21T18:52:08.124Z,7.50
2023-02-21T18:54:37.242Z,7.40
2023-02-21T18:57:05.059Z,7.50
2023-02-21T18:59:35.510Z,7.40
2023-02-21T19:02:03.251Z,7.40
2023-02-21T19:04:31.041Z,7.40
2023-02-21T19:06:58.769Z,7.30
2023-02-21T19:09:26.468Z,7.20
2023-02-21T19:11:55.581Z,7.20
2023-02-21T19:14:23.298Z,7.20
2023-02-21T19:16:50.979Z,7.20
2023-02-21T19:19:18.641Z,7.20
2023-02-21T19:21:46.601Z,7.20
2023-02-21T19:24:14.296Z,7.20
2023-02-21T19:26:42.298Z,7.20
2023-02-21T19:29:12.390Z,7.20
2023-02-21T19:31:40.207Z,7.20
2023-02-21T19:34:10.121Z,7.20
2023-02-21T19:36:39.028Z,7.20
2023-02-21T19:39:07.570Z,7.20
2023-02-21T19:41:36.334Z,7.20
2023-02-21T19:44:04.091Z,7.20
2023-02-21T19:46:33.200Z,7.20
2023-02-21T19:49:00.966Z,7.10
2023-02-21T19:51:32.279Z,7.10
2023-02-21T19:54:00.630Z,7.10
2023-02-21T19:56:28.659Z,7.10
2023-02-21T19:58:58.049Z,7.00
2023-02-21T20:01:26.463Z,7.00
2023-02-21T20:03:55.823Z,7.00
2023-02-21T20:06:24.637Z,7.00
2023-02-21T20:08:52.340Z,7.00
2023-02-21T20:11:21.464Z,6.90
2023-02-21T20:13:49.384Z,6.90
2023-02-21T20:16:20.195Z,6.90
2023-02-21T20:18:49.557Z,6.90
2023-02-21T20:21:20.713Z,6.90
2023-02-21T20:23:48.414Z,6.80
2023-02-21T20:26:17.160Z,6.80
2023-02-21T20:28:44.961Z,6.80
2023-02-21T20:31:14.728Z,6.80
2023-02-21T20:33:43.321Z,6.80
2023-02-21T20:36:11.234Z,6.80
2023-02-21T20:38:40.400Z,6.70
2023-02-21T20:41:10.775Z,6.70
2023-02-21T20:43:38.484Z,6.70
2023-02-21T20:46:06.490Z,6.60
2023-02-21T20:48:34.348Z,6.60
2023-02-21T20:51:02.118Z,6.60
2023-02-21T20:53:30.131Z,6.60
2023-02-21T20:55:59.700Z,6.50
2023-02-21T20:58:27.392Z,6.50
2023-02-21T21:00:55.074Z,6.40
2023-02-21T21:03:22.756Z,6.40
2023-02-21T21:05:50.532Z,6.40
2023-02-21T21:08:18.367Z,6.30
2023-02-21T21:10:48.504Z,6.30
2023-02-21T21:13:17.883Z,6.30
2023-02-21T21:15:45.637Z,6.20
2023-02-21T21:18:13.476Z,6.20
2023-02-21T21:20:41.315Z,6.20
2023-02-21T21:23:09.079Z,6.20
2023-02-21T21:25:37.374Z,6.20
2023-02-21T21:28:06.338Z,6.20
2023-02-21T21:30:37.009Z,6.10
2023-02-21T21:33:07.285Z,6.10
2023-02-21T21:35:36.966Z,6.10
2023-02-21T21:38:07.149Z,6.10
2023-02-21T21:40:34.883Z,6.10
2023-02-21T21:43:06.696Z,6.00
2023-02-21T21:45:44.092Z,6.00
2023-02-21T21:48:14.525Z,6.00
2023-02-21T21:50:42.986Z,6.00
2023-02-21T21:53:11.043Z,5.90
2023-02-21T21:55:39.324Z,5.90
2023-02-21T21:58:10.802Z,5.80
2023-02-21T22:00:42.691Z,5.80
2023-02-21T22:03:14.106Z,5.70
2023-02-21T22:05:46.022Z,5.70
2023-02-21T22:08:16.510Z,5.70
2023-02-21T22:10:45.193Z,5.70
2023-02-21T22:13:14.435Z,5.60
2023-02-21T22:15:44.836Z,5.60
2023-02-21T22:18:16.652Z,5.60
2023-02-21T22:20:49.166Z,5.50
2023-02-21T22:23:20.908Z,5.50
2023-02-21T22:25:48.832Z,5.50
2023-02-21T22:28:18.493Z,5.40
2023-02-21T22:30:47.710Z,5.40
2023-02-21T22:33:18.712Z,5.40
2023-02-21T22:35:47.143Z,5.40
2023-02-21T22:38:17.161Z,5.40
2023-02-21T22:40:46.061Z,5.40
2023-02-21T22:43:13.995Z,5.30
2023-02-21T22:45:44.204Z,5.30
2023-02-21T22:48:16.067Z,5.30
2023-02-21T22:50:47.300Z,5.20
2023-02-21T22:53:18.643Z,5.20
2023-02-21T22:55:51.641Z,5.20
2023-02-21T22:58:20.854Z,5.20
2023-02-21T23:00:49.669Z,5.20
2023-02-21T23:03:18.734Z,5.20
2023-02-21T23:05:49.359Z,5.10
2023-02-21T23:08:20.233Z,5.10
2023-02-21T23:10:48.669Z,5.10
2023-02-21T23:13:19.030Z,5.10
2023-02-21T23:15:47.627Z,5.10
2023-02-21T23:18:20.185Z,5.00
2023-02-21T23:20:52.416Z,5.00
2023-02-21T23:23:20.616Z,4.90
2023-02-21T23:25:48.313Z,4.90
2023-02-21T23:28:17.232Z,4.90
2023-02-21T23:30:46.124Z,4.90
2023-02-21T23:33:16.667Z,4.90
2023-02-21T23:35:45.969Z,4.80
2023-02-21T23:38:16.207Z,4.70
2023-02-21T23:40:44.760Z,4.70
2023-02-21T23:43:13.200Z,4.70
2023-02-21T23:45:41.576Z,4.60
2023-02-21T23:48:15.600Z,4.60
2023-02-21T23:50:46.367Z,4.60
2023-02-21T23:53:19.663Z,4.50
2023-02-21T23:55:48.359Z,4.50
2023-02-21T23:58:18.589Z,4.40
